createdAt,value
2017-05-03T00:00:22.912Z,8.83
2017-05-03T00:01:22.903Z,8.81
2017-05-03T00:02:22.893Z,8.81
2017-05-03T00:03:22.889Z,8.84
2017-05-03T00:04:22.571Z,8.77
2017-05-03T00:05:22.866Z,8.76
2017-05-03T00:06:22.857Z,8.71
2017-05-03T00:07:22.852Z,8.77
2017-05-03T00:08:22.841Z,8.65
2017-05-03T00:09:22.828Z,8.68
2017-05-03T00:10:22.816Z,8.62
2017-05-03T00:11:22.806Z,8.68
2017-05-03T00:12:22.799Z,8.73
2017-05-03T00:13:22.791Z,8.59
2017-05-03T00:14:22.784Z,8.59
2017-05-03T00:15:22.469Z,8.63
2017-05-03T00:16:22.759Z,8.61
2017-05-03T00:17:22.751Z,8.58
2017-05-03T00:18:22.742Z,8.61
2017-05-03T00:19:22.460Z,8.63
2017-05-03T00:20:22.720Z,8.61
2017-05-03T00:21:22.739Z,8.63
2017-05-03T00:22:22.703Z,8.63
2017-05-03T00:23:22.392Z,8.62
2017-05-03T00:24:22.684Z,8.53
2017-05-03T00:25:22.672Z,8.59
2017-05-03T00:26:22.666Z,8.47
2017-05-03T00:27:22.660Z,8.52
2017-05-03T00:28:22.645Z,8.41
2017-05-03T00:29:22.637Z,8.4
2017-05-03T00:30:22.626Z,8.44
2017-05-03T00:31:22.613Z,8.47
2017-05-03T00:32:22.604Z,8.38
2017-05-03T00:33:22.296Z,8.52
2017-05-03T00:34:22.586Z,8.43
2017-05-03T00:35:22.577Z,8.45
2017-05-03T00:36:22.565Z,8.34
2017-05-03T00:37:22.559Z,8.36
2017-05-03T00:38:22.600Z,8.36
2017-05-03T00:39:22.546Z,8.4
2017-05-03T00:40:22.534Z,8.38
2017-05-03T00:41:22.519Z,8.37
2017-05-03T00:42:21.905Z,8.36
2017-05-03T00:43:22.200Z,8.33
2017-05-03T00:44:22.490Z,8.36
2017-05-03T00:45:22.485Z,8.38
2017-05-03T00:46:22.469Z,8.34
2017-05-03T00:47:22.460Z,8.34
2017-05-03T00:48:22.456Z,8.34
2017-05-03T00:49:22.443Z,8.38
2017-05-03T00:50:22.431Z,8.3
2017-05-03T00:51:22.430Z,8.37
2017-05-03T00:52:22.110Z,8.33
2017-05-03T00:53:22.410Z,8.29
2017-05-03T00:54:22.395Z,8.34
2017-05-03T00:55:22.382Z,8.29
2017-05-03T00:56:22.376Z,8.3
2017-05-03T00:57:22.364Z,8.26
2017-05-03T00:58:22.355Z,8.34
2017-05-03T00:59:22.345Z,8.25
2017-05-03T01:00:22.332Z,8.29
2017-05-03T01:01:22.021Z,8.33
2017-05-03T01:02:22.321Z,8.28
2017-05-03T01:03:22.306Z,8.26
2017-05-03T01:04:22.294Z,8.22
2017-05-03T01:05:22.287Z,8.22
2017-05-03T01:06:22.274Z,8.28
2017-05-03T01:07:22.264Z,8.26
2017-05-03T01:08:22.265Z,8.43
2017-05-03T01:09:22.246Z,8.37
2017-05-03T01:10:22.237Z,8.37
2017-05-03T01:11:22.227Z,8.37
2017-05-03T01:12:22.216Z,8.53
2017-05-03T01:13:22.215Z,8.63
2017-05-03T01:14:22.199Z,8.62
2017-05-03T01:15:22.190Z,8.66
2017-05-03T01:16:22.175Z,8.74
2017-05-03T01:17:22.169Z,8.83
2017-05-03T01:18:22.159Z,8.8
2017-05-03T01:19:22.148Z,8.89
2017-05-03T01:20:22.140Z,8.91
2017-05-03T01:21:22.128Z,8.95
2017-05-03T01:22:22.118Z,8.98
2017-05-03T01:23:22.112Z,9.08
2017-05-03T01:24:21.802Z,9.11
2017-05-03T01:25:22.089Z,9.17
2017-05-03T01:26:22.108Z,9.21
2017-05-03T01:27:22.075Z,9.15
2017-05-03T01:28:22.062Z,9.18
2017-05-03T01:29:21.754Z,9.2
2017-05-03T01:30:21.738Z,9.24
2017-05-03T01:31:22.033Z,9.28
2017-05-03T01:32:22.026Z,9.28
2017-05-03T01:33:22.032Z,9.32
2017-05-03T01:34:22.011Z,9.31
2017-05-03T01:35:21.998Z,9.32
2017-05-03T01:36:21.998Z,9.33
2017-05-03T01:37:21.980Z,9.35
2017-05-03T01:38:21.969Z,9.35
2017-05-03T01:39:21.660Z,9.36
2017-05-03T01:40:21.950Z,9.43
2017-05-03T01:41:21.980Z,9.48
2017-05-03T01:42:21.969Z,9.48
2017-05-03T01:43:21.922Z,9.46
2017-05-03T01:44:21.913Z,9.53
2017-05-03T01:45:21.903Z,9.43
2017-05-03T01:46:21.896Z,9.57
2017-05-03T01:47:21.885Z,9.57
2017-05-03T01:48:21.877Z,9.6
2017-05-03T01:49:21.869Z,9.58
2017-05-03T01:50:21.561Z,9.69
2017-05-03T01:51:21.849Z,9.68
2017-05-03T01:52:21.839Z,9.74
2017-05-03T01:53:21.833Z,9.68
2017-05-03T01:54:21.833Z,9.68
2017-05-03T01:55:21.812Z,9.74
2017-05-03T01:56:21.806Z,9.76
2017-05-03T01:57:21.798Z,9.89
2017-05-03T01:58:21.789Z,9.87
2017-05-03T01:59:21.478Z,9.83
2017-05-03T02:00:21.769Z,9.91
2017-05-03T02:01:21.766Z,9.94
2017-05-03T02:02:21.752Z,9.97
2017-05-03T02:03:21.746Z,10.05
2017-05-03T02:04:21.737Z,9.99
2017-05-03T02:05:21.724Z,10.02
2017-05-03T02:06:21.714Z,10.11
2017-05-03T02:07:21.707Z,10.11
2017-05-03T02:08:21.700Z,10.2
2017-05-03T02:09:21.693Z,10.23
2017-05-03T02:10:21.685Z,10.25
2017-05-03T02:11:21.671Z,10.23
2017-05-03T02:12:21.667Z,10.27
2017-05-03T02:13:21.654Z,10.32
2017-05-03T02:14:21.648Z,10.25
2017-05-03T02:15:21.636Z,10.26
2017-05-03T02:16:21.628Z,10.3
2017-05-03T02:17:21.622Z,10.36
2017-05-03T02:18:21.614Z,10.36
2017-05-03T02:19:21.606Z,10.42
2017-05-03T02:20:21.848Z,10.4
2017-05-03T02:21:21.585Z,10.52
2017-05-03T02:22:21.579Z,10.51
2017-05-03T02:23:21.570Z,10.53
2017-05-03T02:24:21.571Z,10.59
2017-05-03T02:25:21.551Z,10.6
2017-05-03T02:26:21.543Z,10.63
2017-05-03T02:27:21.536Z,10.55
2017-05-03T02:28:21.530Z,10.6
2017-05-03T02:29:21.519Z,10.61
2017-05-03T02:30:21.511Z,10.61
2017-05-03T02:31:21.203Z,10.68
2017-05-03T02:32:21.493Z,10.64
2017-05-03T02:33:21.487Z,10.66
2017-05-03T02:34:21.478Z,10.67
2017-05-03T02:35:21.467Z,10.61
2017-05-03T02:36:21.466Z,10.63
2017-05-03T02:37:21.452Z,10.67
2017-05-03T02:38:21.444Z,10.64
2017-05-03T02:39:21.437Z,10.74
2017-05-03T02:40:21.428Z,10.76
2017-05-03T02:41:21.418Z,10.79
2017-05-03T02:42:21.412Z,10.7
2017-05-03T02:43:21.402Z,10.76
2017-05-03T02:44:21.393Z,10.74
2017-05-03T02:45:21.386Z,10.74
2017-05-03T02:46:21.381Z,10.73
2017-05-03T02:47:21.370Z,10.81
2017-05-03T02:48:21.364Z,10.79
2017-05-03T02:49:21.354Z,10.73
2017-05-03T02:50:21.344Z,10.74
2017-05-03T02:51:21.337Z,10.78
2017-05-03T02:52:21.329Z,10.78
2017-05-03T02:53:21.325Z,10.81
2017-05-03T02:54:21.313Z,10.81
2017-05-03T02:55:21.304Z,10.78
2017-05-03T02:56:21.298Z,10.85
2017-05-03T02:57:21.285Z,10.85
2017-05-03T02:58:20.976Z,10.86
2017-05-03T02:59:21.272Z,10.82
2017-05-03T03:00:21.564Z,10.86
2017-05-03T03:01:21.254Z,10.89
2017-05-03T03:02:21.245Z,10.81
2017-05-03T03:03:21.236Z,10.85
2017-05-03T03:04:21.236Z,10.76
2017-05-03T03:05:21.232Z,10.78
2017-05-03T03:06:21.214Z,10.81
2017-05-03T03:07:21.205Z,10.86
2017-05-03T03:08:21.199Z,10.86
2017-05-03T03:09:21.205Z,10.85
2017-05-03T03:10:21.181Z,10.88
2017-05-03T03:11:21.179Z,10.89
2017-05-03T03:12:21.163Z,10.88
2017-05-03T03:13:21.155Z,10.85
2017-05-03T03:14:21.156Z,10.88
2017-05-03T03:15:21.137Z,10.89
2017-05-03T03:16:21.134Z,10.86
2017-05-03T03:17:21.129Z,10.96
2017-05-03T03:18:21.144Z,10.97
2017-05-03T03:19:21.107Z,10.85
2017-05-03T03:20:21.102Z,10.89
2017-05-03T03:21:21.093Z,10.84
2017-05-03T03:22:21.083Z,10.88
2017-05-03T03:23:21.073Z,10.89
2017-05-03T03:24:21.068Z,10.85
2017-05-03T03:25:21.059Z,10.89
2017-05-03T03:26:21.085Z,10.89
2017-05-03T03:27:21.042Z,10.96
2017-05-03T03:28:21.036Z,10.88
2017-05-03T03:29:21.027Z,10.92
2017-05-03T03:30:21.016Z,10.97
2017-05-03T03:31:20.707Z,10.99
2017-05-03T03:32:21.002Z,11.02
2017-05-03T03:33:20.995Z,10.92
2017-05-03T03:34:20.984Z,11
2017-05-03T03:35:20.976Z,11.06
2017-05-03T03:36:20.971Z,10.91
2017-05-03T03:37:20.974Z,10.96
2017-05-03T03:38:20.953Z,10.99
2017-05-03T03:39:20.948Z,10.99
2017-05-03T03:40:20.940Z,10.94
2017-05-03T03:41:20.930Z,10.94
2017-05-03T03:42:20.918Z,11.06
2017-05-03T03:43:20.930Z,10.94
2017-05-03T03:44:20.615Z,10.91
2017-05-03T03:45:20.895Z,10.91
2017-05-03T03:46:20.890Z,10.97
2017-05-03T03:47:20.880Z,10.89
2017-05-03T03:48:20.875Z,10.92
2017-05-03T03:49:20.864Z,10.92
2017-05-03T03:50:20.861Z,10.94
2017-05-03T03:51:20.544Z,10.92
2017-05-03T03:52:20.233Z,10.97
2017-05-03T03:53:20.530Z,11.02
2017-05-03T03:54:20.527Z,10.97
2017-05-03T03:55:20.819Z,11
2017-05-03T03:56:20.809Z,11.02
2017-05-03T03:57:20.802Z,10.91
2017-05-03T03:58:20.795Z,11.07
2017-05-03T03:59:20.786Z,11.06
2017-05-03T04:00:20.773Z,10.89
2017-05-03T04:01:20.767Z,11.03
2017-05-03T04:02:20.761Z,10.89
2017-05-03T04:03:20.752Z,10.99
2017-05-03T04:04:20.742Z,10.89
2017-05-03T04:05:20.736Z,11.03
2017-05-03T04:06:20.730Z,11.03
2017-05-03T04:07:20.722Z,11
2017-05-03T04:08:20.711Z,11.03
2017-05-03T04:09:20.705Z,11.09
2017-05-03T04:10:20.692Z,11.1
2017-05-03T04:11:20.691Z,11.09
2017-05-03T04:12:20.677Z,11.1
2017-05-03T04:13:20.367Z,11.11
2017-05-03T04:14:20.358Z,11.15
2017-05-03T04:15:20.661Z,11.15
2017-05-03T04:16:20.654Z,11.06
2017-05-03T04:17:20.640Z,11.07
2017-05-03T04:18:20.629Z,11.14
2017-05-03T04:19:20.318Z,11.14
2017-05-03T04:20:20.613Z,11.11
2017-05-03T04:21:20.605Z,11.15
2017-05-03T04:22:20.596Z,11.1
2017-05-03T04:23:20.591Z,11.07
2017-05-03T04:24:20.581Z,11.07
2017-05-03T04:25:20.268Z,11.1
2017-05-03T04:26:20.566Z,11.09
2017-05-03T04:27:20.555Z,11.06
2017-05-03T04:28:20.550Z,11.06
2017-05-03T04:29:20.538Z,11.06
2017-05-03T04:30:20.534Z,11.07
2017-05-03T04:31:20.526Z,11.06
2017-05-03T04:32:20.516Z,11.07
2017-05-03T04:33:20.511Z,11.11
2017-05-03T04:34:20.501Z,11.04
2017-05-03T04:35:20.491Z,11.07
2017-05-03T04:36:20.486Z,11.11
2017-05-03T04:37:20.475Z,11.04
2017-05-03T04:38:20.169Z,10.97
2017-05-03T04:39:20.460Z,10.96
2017-05-03T04:40:20.452Z,11.02
2017-05-03T04:41:20.449Z,11.02
2017-05-03T04:42:20.135Z,10.97
2017-05-03T04:43:20.428Z,10.97
2017-05-03T04:44:20.420Z,10.92
2017-05-03T04:45:20.410Z,10.88
2017-05-03T04:46:20.101Z,10.97
2017-05-03T04:47:20.400Z,11.03
2017-05-03T04:48:20.395Z,11
2017-05-03T04:49:20.382Z,11.11
2017-05-03T04:50:20.373Z,11.09
2017-05-03T04:51:20.364Z,11.22
2017-05-03T04:52:20.361Z,11.15
2017-05-03T04:53:20.348Z,11.09
2017-05-03T04:54:20.359Z,11.14
2017-05-03T04:55:20.332Z,11.11
2017-05-03T04:56:20.327Z,11.22
2017-05-03T04:57:20.315Z,11.28
2017-05-03T04:58:20.005Z,11.32
2017-05-03T04:59:20.298Z,11.28
2017-05-03T05:00:19.990Z,11.27
2017-05-03T05:01:20.284Z,11.18
2017-05-03T05:02:19.976Z,11.32
2017-05-03T05:03:20.269Z,11.29
2017-05-03T05:04:19.957Z,11.29
2017-05-03T05:05:19.951Z,11.28
2017-05-03T05:06:19.941Z,11.28
2017-05-03T05:07:20.238Z,11.27
2017-05-03T05:08:19.925Z,11.25
2017-05-03T05:09:20.220Z,11.28
2017-05-03T05:10:19.909Z,11.29
2017-05-03T05:11:19.903Z,11.32
2017-05-03T05:12:20.196Z,11.36
2017-05-03T05:13:19.892Z,11.33
2017-05-03T05:14:19.883Z,11.37
2017-05-03T05:15:19.871Z,11.32
2017-05-03T05:16:19.864Z,11.35
2017-05-03T05:17:20.159Z,11.44
2017-05-03T05:18:20.156Z,11.49
2017-05-03T05:19:19.540Z,11.51
2017-05-03T05:20:19.832Z,11.6
2017-05-03T05:21:19.827Z,11.6
2017-05-03T05:22:19.516Z,11.52
2017-05-03T05:23:19.811Z,11.61
2017-05-03T05:24:19.502Z,11.51
2017-05-03T05:25:19.833Z,11.54
2017-05-03T05:26:19.486Z,11.52
2017-05-03T05:27:19.784Z,11.64
2017-05-03T05:28:20.078Z,11.72
2017-05-03T05:29:19.767Z,11.65
2017-05-03T05:30:19.760Z,11.82
2017-05-03T05:31:20.055Z,11.82
2017-05-03T05:32:19.745Z,11.96
2017-05-03T05:33:19.435Z,11.9
2017-05-03T05:34:19.427Z,12.02
2017-05-03T05:35:19.722Z,11.88
2017-05-03T05:36:19.718Z,11.9
2017-05-03T05:37:19.711Z,11.82
2017-05-03T05:38:20.010Z,11.8
2017-05-03T05:39:20.007Z,11.88
2017-05-03T05:40:19.687Z,11.94
2017-05-03T05:41:19.679Z,11.79
2017-05-03T05:42:19.986Z,11.99
2017-05-03T05:43:19.673Z,11.96
2017-05-03T05:44:19.967Z,12.01
2017-05-03T05:45:19.965Z,12.04
2017-05-03T05:46:19.949Z,11.99
2017-05-03T05:47:19.939Z,12.07
2017-05-03T05:48:19.934Z,12.04
2017-05-03T05:49:19.624Z,12.09
2017-05-03T05:50:19.625Z,12.09
2017-05-03T05:51:19.611Z,12.12
2017-05-03T05:52:19.604Z,12.2
2017-05-03T05:53:19.906Z,12.28
2017-05-03T05:54:19.598Z,12.29
2017-05-03T05:55:19.891Z,12.34
2017-05-03T05:56:19.585Z,12.49
2017-05-03T05:57:19.581Z,12.46
2017-05-03T05:58:19.562Z,12.45
2017-05-03T05:59:19.554Z,12.38
2017-05-03T06:00:19.560Z,12.34
2017-05-03T06:01:19.240Z,12.31
2017-05-03T06:02:19.846Z,12.34
2017-05-03T06:03:19.834Z,12.42
2017-05-03T06:04:19.519Z,12.49
2017-05-03T06:05:19.818Z,12.46
2017-05-03T06:06:19.811Z,12.53
2017-05-03T06:07:19.814Z,12.64
2017-05-03T06:08:19.808Z,12.62
2017-05-03T06:09:19.490Z,12.67
2017-05-03T06:10:19.787Z,12.75
2017-05-03T06:11:19.477Z,12.79
2017-05-03T06:12:19.773Z,12.85
2017-05-03T06:13:19.770Z,13
2017-05-03T06:14:19.764Z,13.01
2017-05-03T06:15:19.764Z,13
2017-05-03T06:16:19.752Z,13.08
2017-05-03T06:17:19.440Z,13.14
2017-05-03T06:18:19.737Z,13.12
2017-05-03T06:19:19.732Z,13.1
2017-05-03T06:20:19.727Z,13.12
2017-05-03T06:21:19.718Z,13.1
2017-05-03T06:22:19.718Z,13.08
2017-05-03T06:23:19.452Z,12.97
2017-05-03T06:24:19.706Z,13
2017-05-03T06:25:19.694Z,12.96
2017-05-03T06:26:19.692Z,12.92
2017-05-03T06:27:19.683Z,12.83
2017-05-03T06:28:19.680Z,12.89
2017-05-03T06:29:19.366Z,12.79
2017-05-03T06:30:19.663Z,12.74
2017-05-03T06:31:19.702Z,12.77
2017-05-03T06:32:19.652Z,12.72
2017-05-03T06:33:19.649Z,12.78
2017-05-03T06:34:19.641Z,12.78
2017-05-03T06:35:19.640Z,12.75
2017-05-03T06:36:19.628Z,12.71
2017-05-03T06:37:19.318Z,12.68
2017-05-03T06:38:19.962Z,12.59
2017-05-03T06:39:19.612Z,12.45
2017-05-03T06:40:19.603Z,12.53
2017-05-03T06:41:19.598Z,12.56
2017-05-03T06:42:19.593Z,12.65
2017-05-03T06:43:19.590Z,12.68
2017-05-03T06:44:19.277Z,12.65
2017-05-03T06:45:19.268Z,12.72
2017-05-03T06:46:19.568Z,12.74
2017-05-03T06:47:19.259Z,12.78
2017-05-03T06:48:19.555Z,12.72
2017-05-03T06:49:19.552Z,12.65
2017-05-03T06:50:19.544Z,12.62
2017-05-03T06:51:19.541Z,12.68
2017-05-03T06:52:19.529Z,12.65
2017-05-03T06:53:19.526Z,12.62
2017-05-03T06:54:19.518Z,12.64
2017-05-03T06:55:19.211Z,12.67
2017-05-03T06:56:19.202Z,12.59
2017-05-03T06:57:19.198Z,12.68
2017-05-03T06:58:19.493Z,12.71
2017-05-03T06:59:19.494Z,12.71
2017-05-03T07:00:19.480Z,12.77
2017-05-03T07:01:19.479Z,12.85
2017-05-03T07:02:19.471Z,12.72
2017-05-03T07:03:19.166Z,12.75
2017-05-03T07:04:19.460Z,12.83
2017-05-03T07:05:19.454Z,12.86
2017-05-03T07:06:19.451Z,12.9
2017-05-03T07:07:19.441Z,12.83
2017-05-03T07:08:19.467Z,12.78
2017-05-03T07:09:19.431Z,12.77
2017-05-03T07:10:19.427Z,12.72
2017-05-03T07:11:19.420Z,12.74
2017-05-03T07:12:19.416Z,12.74
2017-05-03T07:13:19.413Z,12.75
2017-05-03T07:14:19.407Z,12.75
2017-05-03T07:15:19.090Z,12.9
2017-05-03T07:16:19.391Z,13.03
2017-05-03T07:17:19.385Z,13.03
2017-05-03T07:18:19.379Z,13.11
2017-05-03T07:19:19.379Z,13.12
2017-05-03T07:20:19.364Z,13.17
2017-05-03T07:21:19.358Z,13.19
2017-05-03T07:22:19.354Z,13.3
2017-05-03T07:23:19.348Z,13.39
2017-05-03T07:24:19.345Z,13.64
2017-05-03T07:25:19.336Z,13.55
2017-05-03T07:26:19.332Z,13.73
2017-05-03T07:27:19.325Z,13.81
2017-05-03T07:28:19.320Z,13.81
2017-05-03T07:29:19.314Z,13.75
2017-05-03T07:30:19.309Z,13.81
2017-05-03T07:31:19.001Z,13.69
2017-05-03T07:32:19.301Z,13.54
2017-05-03T07:33:19.296Z,13.41
2017-05-03T07:34:19.290Z,13.33
2017-05-03T07:35:19.280Z,13.26
2017-05-03T07:36:18.973Z,13.19
2017-05-03T07:37:18.970Z,13.17
2017-05-03T07:38:19.271Z,13.14
2017-05-03T07:39:18.961Z,13.26
2017-05-03T07:40:19.254Z,13.23
2017-05-03T07:41:19.257Z,13.3
2017-05-03T07:42:19.588Z,13.42
2017-05-03T07:43:19.244Z,13.49
2017-05-03T07:44:18.932Z,13.62
2017-05-03T07:45:19.232Z,13.55
2017-05-03T07:46:19.226Z,13.46
2017-05-03T07:47:18.914Z,13.38
2017-05-03T07:48:19.215Z,13.26
2017-05-03T07:49:18.907Z,13.23
2017-05-03T07:50:19.200Z,13.29
2017-05-03T07:51:19.196Z,13.41
2017-05-03T07:52:19.192Z,13.62
2017-05-03T07:53:18.884Z,13.73
2017-05-03T07:54:18.877Z,13.82
2017-05-03T07:55:18.876Z,13.82
2017-05-03T07:56:19.175Z,13.69
2017-05-03T07:57:19.166Z,13.59
2017-05-03T07:58:19.161Z,13.52
2017-05-03T07:59:18.850Z,13.46
2017-05-03T08:00:18.849Z,13.39
2017-05-03T08:01:19.151Z,13.39
2017-05-03T08:02:18.837Z,13.33
2017-05-03T08:03:19.143Z,13.23
2017-05-03T08:04:18.827Z,13.29
2017-05-03T08:05:18.822Z,13.41
2017-05-03T08:06:19.123Z,13.55
2017-05-03T08:07:19.115Z,13.64
2017-05-03T08:08:19.111Z,13.7
2017-05-03T08:09:19.107Z,13.73
2017-05-03T08:10:18.805Z,13.89
2017-05-03T08:11:18.794Z,13.96
2017-05-03T08:12:19.095Z,14.07
2017-05-03T08:13:19.094Z,14.09
2017-05-03T08:14:19.085Z,14.29
2017-05-03T08:15:18.775Z,14.43
2017-05-03T08:16:18.771Z,14.52
2017-05-03T08:17:18.774Z,14.8
2017-05-03T08:18:18.765Z,15.06
2017-05-03T08:19:18.456Z,15.21
2017-05-03T08:20:18.798Z,15.46
2017-05-03T08:21:18.750Z,15.68
2017-05-03T08:22:18.749Z,15.86
2017-05-03T08:23:18.743Z,16
2017-05-03T08:24:18.744Z,16.2
2017-05-03T08:25:18.739Z,16.27
2017-05-03T08:26:19.039Z,16.38
2017-05-03T08:27:19.039Z,16.39
2017-05-03T08:28:19.033Z,16.38
2017-05-03T08:29:19.029Z,16.39
2017-05-03T08:30:19.024Z,16.34
2017-05-03T08:31:19.020Z,16.33
2017-05-03T08:32:19.020Z,16.08
2017-05-03T08:33:19.018Z,15.92
2017-05-03T08:34:19.019Z,15.6
2017-05-03T08:35:19.012Z,15.51
2017-05-03T08:36:19.011Z,15.38
2017-05-03T08:37:19.003Z,15.32
2017-05-03T08:38:18.699Z,15.39
2017-05-03T08:39:18.695Z,15.53
2017-05-03T08:40:19.000Z,15.6
2017-05-03T08:41:18.996Z,15.71
2017-05-03T08:42:18.386Z,15.62
2017-05-03T08:43:18.685Z,15.68
2017-05-03T08:44:18.377Z,15.8
2017-05-03T08:45:18.983Z,15.9
2017-05-03T08:46:18.983Z,15.93
2017-05-03T08:47:18.979Z,16.12
2017-05-03T08:48:18.973Z,16.21
2017-05-03T08:49:18.976Z,16.38
2017-05-03T08:50:18.663Z,16.53
2017-05-03T08:51:18.969Z,16.7
2017-05-03T08:52:18.963Z,16.89
2017-05-03T08:53:18.964Z,17.03
2017-05-03T08:54:18.959Z,17.16
2017-05-03T08:55:18.972Z,17.12
2017-05-03T08:56:18.951Z,17.12
2017-05-03T08:57:18.651Z,17.16
2017-05-03T08:58:18.947Z,17.22
2017-05-03T08:59:18.942Z,17.19
2017-05-03T09:00:18.942Z,17.25
2017-05-03T09:01:18.662Z,17.34
2017-05-03T09:02:18.637Z,17.28
2017-05-03T09:03:18.645Z,17.34
2017-05-03T09:04:18.634Z,17.26
2017-05-03T09:05:18.933Z,17.31
2017-05-03T09:06:18.927Z,17.41
2017-05-03T09:07:18.931Z,17.34
2017-05-03T09:08:18.933Z,17.4
2017-05-03T09:09:18.929Z,17.25
2017-05-03T09:10:18.617Z,17.22
2017-05-03T09:11:18.916Z,17.18
2017-05-03T09:12:18.912Z,17.08
2017-05-03T09:13:18.911Z,17.03
2017-05-03T09:14:18.304Z,17.07
2017-05-03T09:15:18.904Z,17
2017-05-03T09:16:18.903Z,16.93
2017-05-03T09:17:18.597Z,17.01
2017-05-03T09:18:18.898Z,16.97
2017-05-03T09:19:18.902Z,16.98
2017-05-03T09:20:18.895Z,17.03
2017-05-03T09:21:18.892Z,17.07
2017-05-03T09:22:18.889Z,17.25
2017-05-03T09:23:18.887Z,17.3
2017-05-03T09:24:18.883Z,17.38
2017-05-03T09:25:18.881Z,17.37
2017-05-03T09:26:18.880Z,17.38
2017-05-03T09:27:18.875Z,17.4
2017-05-03T09:28:18.874Z,17.23
2017-05-03T09:29:18.569Z,17.4
2017-05-03T09:30:18.568Z,17.36
2017-05-03T09:31:18.867Z,17.37
2017-05-03T09:32:18.863Z,17.4
2017-05-03T09:33:18.559Z,17.52
2017-05-03T09:34:18.560Z,17.52
2017-05-03T09:35:18.859Z,17.59
2017-05-03T09:36:18.856Z,17.62
2017-05-03T09:37:18.551Z,17.7
2017-05-03T09:38:18.852Z,17.86
2017-05-03T09:39:18.847Z,17.78
2017-05-03T09:40:18.849Z,17.96
2017-05-03T09:41:18.846Z,18.11
2017-05-03T09:42:18.845Z,18.21
2017-05-03T09:43:18.837Z,18.26
2017-05-03T09:44:18.839Z,18.5
2017-05-03T09:45:18.532Z,18.66
2017-05-03T09:46:18.833Z,18.84
2017-05-03T09:47:18.833Z,18.95
2017-05-03T09:48:18.838Z,19
2017-05-03T09:49:18.526Z,19.18
2017-05-03T09:50:18.829Z,19.26
2017-05-03T09:51:18.830Z,19.19
2017-05-03T09:52:18.827Z,19.39
2017-05-03T09:53:18.526Z,19.33
2017-05-03T09:54:18.823Z,19.54
2017-05-03T09:55:18.828Z,19.68
2017-05-03T09:56:18.523Z,19.88
2017-05-03T09:57:18.825Z,19.91
2017-05-03T09:58:18.827Z,19.94
2017-05-03T09:59:18.823Z,19.94
2017-05-03T10:00:18.521Z,19.88
2017-05-03T10:01:18.823Z,20.05
2017-05-03T10:02:18.518Z,20.26
2017-05-03T10:03:18.826Z,20.38
2017-05-03T10:04:18.824Z,20.39
2017-05-03T10:05:18.834Z,20.5
2017-05-03T10:06:18.822Z,20.54
2017-05-03T10:07:18.821Z,20.52
2017-05-03T10:08:18.825Z,20.54
2017-05-03T10:09:18.824Z,20.66
2017-05-03T10:10:18.864Z,20.79
2017-05-03T10:11:18.829Z,20.92
2017-05-03T10:12:18.524Z,20.95
2017-05-03T10:13:18.830Z,20.99
2017-05-03T10:14:18.529Z,20.85
2017-05-03T10:15:18.844Z,20.69
2017-05-03T10:16:18.829Z,20.62
2017-05-03T10:17:18.833Z,20.66
2017-05-03T10:18:18.832Z,20.47
2017-05-03T10:19:18.832Z,20.39
2017-05-03T10:20:18.839Z,20.26
2017-05-03T10:21:18.836Z,20.24
2017-05-03T10:22:18.838Z,20.14
2017-05-03T10:23:18.535Z,20.14
2017-05-03T10:24:18.840Z,20.23
2017-05-03T10:25:18.841Z,20.28
2017-05-03T10:26:18.844Z,20.38
2017-05-03T10:27:18.535Z,20.35
2017-05-03T10:28:18.841Z,20.33
2017-05-03T10:29:18.539Z,20.29
2017-05-03T10:30:18.539Z,20.18
2017-05-03T10:31:18.538Z,20.28
2017-05-03T10:32:18.538Z,20.36
2017-05-03T10:33:18.841Z,20.43
2017-05-03T10:34:18.840Z,20.32
2017-05-03T10:35:18.841Z,19.99
2017-05-03T10:36:18.841Z,19.81
2017-05-03T10:37:18.849Z,19.63
2017-05-03T10:38:18.842Z,19.56
2017-05-03T10:39:18.850Z,19.63
2017-05-03T10:40:18.843Z,19.63
2017-05-03T10:41:18.549Z,19.55
2017-05-03T10:42:18.844Z,19.46
2017-05-03T10:43:18.845Z,19.1
2017-05-03T10:44:18.844Z,18.98
2017-05-03T10:45:18.845Z,19.08
2017-05-03T10:46:18.846Z,18.85
2017-05-03T10:47:18.845Z,18.87
2017-05-03T10:48:18.844Z,18.87
2017-05-03T10:49:18.844Z,18.84
2017-05-03T10:50:18.844Z,18.85
2017-05-03T10:51:18.848Z,18.9
2017-05-03T10:52:18.841Z,18.85
2017-05-03T10:53:18.865Z,18.91
2017-05-03T10:54:18.838Z,19.04
2017-05-03T10:55:18.538Z,19
2017-05-03T10:56:18.840Z,19.02
2017-05-03T10:57:18.840Z,19
2017-05-03T10:58:18.841Z,18.95
2017-05-03T10:59:18.839Z,18.84
2017-05-03T11:00:18.840Z,18.63
2017-05-03T11:01:18.851Z,18.48
2017-05-03T11:02:18.838Z,18.37
2017-05-03T11:03:18.838Z,18.41
2017-05-03T11:04:18.834Z,18.45
2017-05-03T11:05:18.834Z,18.42
2017-05-03T11:06:18.834Z,18.45
2017-05-03T11:07:18.832Z,18.39
2017-05-03T11:08:18.830Z,18.42
2017-05-03T11:09:18.835Z,18.58
2017-05-03T11:10:18.833Z,18.55
2017-05-03T11:11:18.525Z,18.55
2017-05-03T11:12:18.526Z,18.54
2017-05-03T11:13:18.828Z,18.72
2017-05-03T11:14:18.829Z,18.88
2017-05-03T11:15:18.824Z,18.99
2017-05-03T11:16:18.520Z,19.22
2017-05-03T11:17:18.522Z,19.31
2017-05-03T11:18:18.824Z,19.33
2017-05-03T11:19:18.519Z,19.4
2017-05-03T11:20:18.520Z,19.4
2017-05-03T11:21:18.834Z,19.55
2017-05-03T11:22:18.516Z,19.46
2017-05-03T11:23:18.514Z,19.47
2017-05-03T11:24:18.820Z,19.54
2017-05-03T11:25:18.513Z,19.62
2017-05-03T11:26:18.516Z,19.5
2017-05-03T11:27:18.817Z,19.54
2017-05-03T11:28:18.822Z,19.36
2017-05-03T11:29:18.817Z,19.28
2017-05-03T11:30:18.513Z,19.23
2017-05-03T11:31:18.818Z,19.16
2017-05-03T11:32:18.814Z,19.07
2017-05-03T11:33:18.509Z,19
2017-05-03T11:34:18.816Z,19.18
2017-05-03T11:35:18.810Z,19.11
2017-05-03T11:36:18.807Z,19.19
2017-05-03T11:37:18.509Z,19.19
2017-05-03T11:38:18.807Z,19.22
2017-05-03T11:39:18.806Z,19.23
2017-05-03T11:40:18.820Z,19.16
2017-05-03T11:41:18.502Z,19.26
2017-05-03T11:42:18.501Z,19.28
2017-05-03T11:43:18.804Z,19.21
2017-05-03T11:44:18.805Z,19.19
2017-05-03T11:45:18.802Z,19.25
2017-05-03T11:46:18.801Z,19.28
2017-05-03T11:47:18.191Z,19.33
2017-05-03T11:48:18.801Z,19.33
2017-05-03T11:49:18.797Z,19.36
2017-05-03T11:50:18.800Z,19.51
2017-05-03T11:51:18.797Z,19.55
2017-05-03T11:52:18.795Z,19.55
2017-05-03T11:53:18.797Z,19.54
2017-05-03T11:54:18.792Z,19.61
2017-05-03T11:55:18.791Z,19.5
2017-05-03T11:56:18.793Z,19.41
2017-05-03T11:57:18.799Z,19.33
2017-05-03T11:58:18.792Z,19.16
2017-05-03T11:59:18.794Z,19
2017-05-03T12:00:18.789Z,18.9
2017-05-03T12:01:18.793Z,18.82
2017-05-03T12:02:18.787Z,18.57
2017-05-03T12:03:18.790Z,18.39
2017-05-03T12:04:18.790Z,18.3
2017-05-03T12:05:18.784Z,18.17
2017-05-03T12:06:18.791Z,18.2
2017-05-03T12:07:18.784Z,18.18
2017-05-03T12:08:18.787Z,18.21
2017-05-03T12:09:18.782Z,18.21
2017-05-03T12:10:18.781Z,18.27
2017-05-03T12:11:18.781Z,18.27
2017-05-03T12:12:18.778Z,18.26
2017-05-03T12:13:18.780Z,18.32
2017-05-03T12:14:18.778Z,18.36
2017-05-03T12:15:18.777Z,18.41
2017-05-03T12:16:18.774Z,18.27
2017-05-03T12:17:18.467Z,18.44
2017-05-03T12:18:18.769Z,18.54
2017-05-03T12:19:18.772Z,18.65
2017-05-03T12:20:18.781Z,18.87
2017-05-03T12:21:18.766Z,18.94
2017-05-03T12:22:18.767Z,19.02
2017-05-03T12:23:18.764Z,19.06
2017-05-03T12:24:18.759Z,19.04
2017-05-03T12:25:18.761Z,19.16
2017-05-03T12:26:18.759Z,19.26
2017-05-03T12:27:18.453Z,19.31
2017-05-03T12:28:18.755Z,19.28
2017-05-03T12:29:18.753Z,19.21
2017-05-03T12:30:18.752Z,19.19
2017-05-03T12:31:18.754Z,19
2017-05-03T12:32:18.445Z,18.92
2017-05-03T12:33:18.749Z,18.72
2017-05-03T12:34:18.758Z,18.52
2017-05-03T12:35:18.745Z,18.35
2017-05-03T12:36:18.761Z,18.21
2017-05-03T12:37:18.742Z,18
2017-05-03T12:38:18.741Z,17.89
2017-05-03T12:39:18.742Z,17.77
2017-05-03T12:40:18.736Z,17.81
2017-05-03T12:41:18.744Z,17.84
2017-05-03T12:42:18.431Z,17.89
2017-05-03T12:43:18.734Z,18.14
2017-05-03T12:44:18.431Z,18.35
2017-05-03T12:45:18.730Z,18.42
2017-05-03T12:46:18.730Z,18.42
2017-05-03T12:47:18.727Z,18.42
2017-05-03T12:48:18.724Z,18.42
2017-05-03T12:49:18.724Z,18.42
2017-05-03T12:50:18.720Z,18.47
2017-05-03T12:51:18.415Z,18.5
2017-05-03T12:52:18.714Z,18.62
2017-05-03T12:53:18.409Z,18.55
2017-05-03T12:54:18.711Z,18.66
2017-05-03T12:55:18.712Z,18.69
2017-05-03T12:56:18.406Z,18.75
2017-05-03T12:57:18.709Z,18.75
2017-05-03T12:58:18.707Z,18.63
2017-05-03T12:59:18.707Z,18.57
2017-05-03T13:00:18.402Z,18.48